Battle Creek, Nebraska
Current Conditions -  °F | °C
As of 3:56 PM on Saturday 25 Oct 2014 (Local Time) from KOFK Reporting Station
Clear Clear  
Wind Chill: 71°   Ceiling: Unl
Heat Index: 71°   Visibility: 10mi
Dew Point: 35°   Wind: 8mph
Humidity: 27%   Direction: 80°E
Pressure: 30.07"   Gusts: NA
Location:  42°N, 97.6°W
Report Text: KOFK 252056Z AUTO 08007KT 10SM CLR 22/02 A3007 RMK AO2 SLP182 T02170017 56020
Loading
Personal Weather Stations






























Interactive Weather Map
Tropical Storm Tracking
New forecast layout! Learn more

10-Day Weather Forecast

Advertisements
Track Severe Weather on mobile